Time;durP1;ratioP1;P1;durP2;ratioP2;P2;SDS_P1;SDS_P2;PMS_P1;PMS_P2;Temp;Humidity;BMP_temperature;BMP_pressure;BME280_temperature;BME280_humidity;BME280_pressure;Samples;Min_cycle;Max_cycle;Signal;HPM_P1;HPM_P2
2023/12/09 00:01:25;;;;;;;5.67;2.80;;;15.70;98.80;;;;;;4975898;28;20182;-92
2023/12/09 00:03:50;;;;;;;4.30;2.50;;;15.70;98.70;;;;;;4984807;28;20245;-91
2023/12/09 00:06:18;;;;;;;4.53;2.57;;;15.70;98.70;;;;;;4976282;28;20182;-93
2023/12/09 00:08:44;;;;;;;4.20;2.57;;;15.70;98.70;;;;;;4984584;28;20171;-92
2023/12/09 00:11:11;;;;;;;3.83;2.47;;;15.70;98.60;;;;;;4974633;28;20192;-92
2023/12/09 00:13:37;;;;;;;4.87;2.83;;;15.60;98.80;;;;;;4984481;28;20183;-93
2023/12/09 00:16:03;;;;;;;3.90;2.33;;;15.60;98.60;;;;;;4973240;28;20181;-92
2023/12/09 00:18:29;;;;;;;4.37;2.60;;;15.60;98.50;;;;;;4984816;28;20213;-92
2023/12/09 00:20:55;;;;;;;4.10;2.70;;;15.60;98.50;;;;;;4973148;28;20183;-92
2023/12/09 00:23:20;;;;;;;5.73;3.20;;;15.60;98.50;;;;;;4985214;28;20555;-92
2023/12/09 00:25:46;;;;;;;5.60;3.07;;;15.60;98.50;;;;;;4975489;28;20362;-92
2023/12/09 00:28:12;;;;;;;7.33;2.80;;;15.60;98.40;;;;;;4983472;28;20216;-92
2023/12/09 00:30:38;;;;;;;4.80;2.80;;;15.60;98.40;;;;;;4978190;28;20190;-92
2023/12/09 00:33:05;;;;;;;4.23;2.90;;;15.60;98.40;;;;;;4980847;28;20469;-92
2023/12/09 00:35:30;;;;;;;4.23;2.73;;;15.60;98.40;;;;;;4980958;28;20179;-92
2023/12/09 00:37:56;;;;;;;5.13;2.97;;;15.60;98.30;;;;;;4979351;28;20249;-92
2023/12/09 00:40:22;;;;;;;5.60;3.00;;;15.60;98.30;;;;;;4984054;28;20190;-92
2023/12/09 00:42:48;;;;;;;5.73;2.90;;;15.60;98.30;;;;;;4976855;28;20213;-92
2023/12/09 00:45:14;;;;;;;5.07;2.50;;;15.60;98.30;;;;;;4985211;28;20206;-92
2023/12/09 00:47:40;;;;;;;4.03;2.50;;;15.60;98.30;;;;;;4975541;28;20175;-92
2023/12/09 00:50:07;;;;;;;3.77;2.77;;;15.60;98.20;;;;;;4984697;28;20352;-92
2023/12/09 00:52:33;;;;;;;4.07;2.60;;;15.60;98.20;;;;;;4975089;28;20186;-93
2023/12/09 00:55:00;;;;;;;5.03;3.00;;;15.60;98.10;;;;;;4986015;28;20257;-92
2023/12/09 00:57:26;;;;;;;7.70;2.90;;;15.50;98.10;;;;;;4972671;28;20182;-93
2023/12/09 00:59:53;;;;;;;3.90;2.70;;;15.50;98.10;;;;;;4983792;28;20586;-92
2023/12/09 01:02:18;;;;;;;4.67;2.63;;;15.50;98.10;;;;;;4971853;28;20232;-92
2023/12/09 01:04:44;;;;;;;3.17;2.37;;;15.50;98.10;;;;;;4983692;28;20177;-93
2023/12/09 01:07:10;;;;;;;6.07;2.80;;;15.50;98.10;;;;;;4974374;28;20182;-93
2023/12/09 01:09:36;;;;;;;4.47;2.90;;;15.50;98.10;;;;;;4982364;28;20275;-92
2023/12/09 01:12:02;;;;;;;5.03;2.87;;;15.50;98.10;;;;;;4977814;28;20182;-93
2023/12/09 01:14:28;;;;;;;3.63;2.60;;;15.50;98.10;;;;;;4981964;28;20177;-91
2023/12/09 01:16:54;;;;;;;3.63;2.50;;;15.50;98.00;;;;;;4980868;28;20184;-92
2023/12/09 01:19:19;;;;;;;4.43;2.60;;;15.50;98.00;;;;;;4978461;28;20556;-92
2023/12/09 01:21:45;;;;;;;4.43;2.80;;;15.50;97.90;;;;;;4983000;28;20269;-92
2023/12/09 01:24:11;;;;;;;3.00;2.40;;;15.50;98.00;;;;;;4976444;28;20174;-92
2023/12/09 01:26:37;;;;;;;4.33;2.57;;;15.50;98.00;;;;;;4984187;28;20296;-92
2023/12/09 01:29:03;;;;;;;3.37;2.47;;;15.50;97.90;;;;;;4976628;28;20174;-92
2023/12/09 01:31:30;;;;;;;5.40;2.47;;;15.50;98.00;;;;;;4983785;28;20244;-92
2023/12/09 01:33:56;;;;;;;4.53;2.70;;;15.50;97.90;;;;;;4993355;28;20194;-92
2023/12/09 01:36:21;;;;;;;3.50;2.20;;;15.50;97.90;;;;;;4981559;28;20174;-92
2023/12/09 01:38:47;;;;;;;2.97;2.00;;;15.50;98.10;;;;;;4994664;28;20238;-92
2023/12/09 01:41:13;;;;;;;4.20;2.60;;;15.40;97.90;;;;;;4978970;28;20178;-92
2023/12/09 01:43:39;;;;;;;3.57;2.13;;;15.40;97.90;;;;;;4992743;28;20209;-92
2023/12/09 01:46:12;;;;;;;3.20;2.27;;;15.50;97.90;;;;;;4982807;28;20206;-92
2023/12/09 01:48:38;;;;;;;3.13;2.20;;;15.40;97.80;;;;;;4990447;28;20182;-92
2023/12/09 01:51:06;;;;;;;4.03;2.20;;;15.40;97.80;;;;;;4978433;28;20309;-92
2023/12/09 01:53:34;;;;;;;3.90;2.17;;;15.40;97.80;;;;;;4993678;28;20180;-92
2023/12/09 01:56:03;;;;;;;3.17;2.17;;;15.50;97.80;;;;;;4990200;28;20189;-92
2023/12/09 01:58:29;;;;;;;4.70;2.57;;;15.40;97.80;;;;;;4988823;28;20552;-92
2023/12/09 02:00:56;;;;;;;3.03;2.20;;;15.40;97.80;;;;;;4986030;28;20182;-92
2023/12/09 02:03:22;;;;;;;3.57;2.07;;;15.40;97.80;;;;;;4987787;28;20212;-92
2023/12/09 02:05:48;;;;;;;3.33;2.27;;;15.40;97.80;;;;;;4989249;28;20179;-92
2023/12/09 02:08:14;;;;;;;3.57;2.20;;;15.40;97.80;;;;;;4983859;28;20407;-92
2023/12/09 02:10:42;;;;;;;3.63;2.30;;;15.40;97.80;;;;;;4992601;28;20184;-92
2023/12/09 02:13:20;;;;;;;4.50;2.30;;;15.40;97.80;;;;;;4981542;28;20182;-92
2023/12/09 02:16:17;;;;;;;2.93;2.00;;;15.40;97.80;;;;;;4989242;28;20179;-92
2023/12/09 02:18:44;;;;;;;4.17;2.13;;;15.40;97.80;;;;;;4990455;28;20240;-92
2023/12/09 02:21:10;;;;;;;3.00;2.20;;;15.40;97.70;;;;;;4986925;28;20184;-92
2023/12/09 02:23:36;;;;;;;2.80;2.03;;;15.40;97.70;;;;;;4982461;28;20207;-92
2023/12/09 02:26:10;;;;;;;2.70;2.00;;;15.40;97.70;;;;;;4972889;28;20595;-92
2023/12/09 02:28:40;;;;;;;4.47;2.13;;;15.40;97.60;;;;;;4981832;28;20243;-92
2023/12/09 02:31:17;;;;;;;2.33;1.90;;;15.40;97.60;;;;;;4970514;28;20177;-92
2023/12/09 02:33:44;;;;;;;2.80;2.07;;;15.40;97.50;;;;;;4981412;28;20196;-92
2023/12/09 02:36:12;;;;;;;2.93;2.03;;;15.40;97.50;;;;;;4972086;28;20193;-92
2023/12/09 02:38:39;;;;;;;2.80;2.00;;;15.40;97.50;;;;;;4981560;28;20575;-92
2023/12/09 02:41:09;;;;;;;2.43;1.77;;;15.40;97.50;;;;;;4971284;28;20237;-92
2023/12/09 02:43:36;;;;;;;3.07;1.90;;;15.40;97.40;;;;;;4982556;28;20217;-92
2023/12/09 02:46:02;;;;;;;2.30;1.87;;;15.40;97.30;;;;;;4976710;28;20184;-92
2023/12/09 02:48:27;;;;;;;4.27;2.10;;;15.40;97.30;;;;;;4989406;28;20336;-92
2023/12/09 02:50:53;;;;;;;3.80;2.10;;;15.40;97.60;;;;;;4976954;28;20504;-92
2023/12/09 02:53:19;;;;;;;4.73;2.03;;;15.40;97.20;;;;;;4989411;28;20233;-92
2023/12/09 02:55:44;;;;;;;2.93;1.80;;;15.40;97.30;;;;;;4978342;28;20179;-92
2023/12/09 02:58:10;;;;;;;2.90;1.73;;;15.40;97.30;;;;;;4983664;28;20195;-92
2023/12/09 03:00:36;;;;;;;3.43;1.77;;;15.40;97.40;;;;;;4978839;28;20601;-92
2023/12/09 03:03:01;;;;;;;3.40;1.90;;;15.40;97.50;;;;;;4980131;28;20225;-91
2023/12/09 03:05:27;;;;;;;2.90;1.77;;;15.30;97.40;;;;;;4981245;28;20179;-91
2023/12/09 03:07:53;;;;;;;4.30;2.07;;;15.30;97.40;;;;;;4978426;28;20175;-92
2023/12/09 03:10:18;;;;;;;3.23;1.70;;;15.30;97.40;;;;;;4984596;28;20181;-92
2023/12/09 03:12:45;;;;;;;3.60;1.90;;;15.30;97.40;;;;;;4976622;28;20178;-92
2023/12/09 03:15:11;;;;;;;2.67;1.70;;;15.30;97.40;;;;;;4987715;28;20186;-92
2023/12/09 03:17:37;;;;;;;4.73;1.87;;;15.30;97.40;;;;;;4977214;28;20175;-92
2023/12/09 03:20:03;;;;;;;3.53;1.97;;;15.30;97.40;;;;;;4983809;28;20580;-92
2023/12/09 03:22:29;;;;;;;2.90;1.80;;;15.30;97.40;;;;;;4995752;28;20226;-91
2023/12/09 03:24:56;;;;;;;3.57;2.00;;;15.30;97.40;;;;;;4982653;28;20199;-92
2023/12/09 03:27:23;;;;;;;2.03;1.60;;;15.30;97.40;;;;;;4996030;28;20221;-92
2023/12/09 03:29:48;;;;;;;3.87;1.83;;;15.30;97.40;;;;;;4984417;28;20179;-92
2023/12/09 03:32:14;;;;;;;2.60;1.67;;;15.30;97.40;;;;;;4996397;28;20289;-92
2023/12/09 03:34:40;;;;;;;3.17;1.70;;;15.30;97.30;;;;;;4985328;28;20185;-91
2023/12/09 03:37:06;;;;;;;2.50;1.70;;;15.30;97.30;;;;;;4993866;28;20261;-92
2023/12/09 03:39:32;;;;;;;3.23;1.57;;;15.30;97.30;;;;;;4985957;28;20190;-92
2023/12/09 03:41:57;;;;;;;2.70;1.97;;;15.30;97.30;;;;;;4991635;28;20261;-92
2023/12/09 03:44:23;;;;;;;2.30;1.67;;;15.20;97.30;;;;;;4987537;28;20178;-92
2023/12/09 03:46:49;;;;;;;2.60;1.80;;;15.20;97.20;;;;;;4987368;28;20174;-92
2023/12/09 03:49:15;;;;;;;2.20;1.50;;;15.20;97.20;;;;;;4989140;28;20472;-91
2023/12/09 03:51:40;;;;;;;1.90;1.60;;;15.30;97.20;;;;;;4983952;28;20210;-92
2023/12/09 03:54:06;;;;;;;2.00;1.43;;;15.20;97.20;;;;;;4990870;28;20173;-93
2023/12/09 03:56:32;;;;;;;2.40;1.60;;;15.20;97.20;;;;;;4981537;28;20177;-92
2023/12/09 03:58:58;;;;;;;2.87;1.50;;;15.20;97.20;;;;;;4992549;28;20590;-93
2023/12/09 04:01:24;;;;;;;2.47;1.70;;;15.20;97.20;;;;;;4983234;28;20177;-93
2023/12/09 04:03:50;;;;;;;2.93;1.60;;;15.20;97.10;;;;;;4996377;28;20206;-92
2023/12/09 04:06:17;;;;;;;2.40;1.60;;;15.20;97.20;;;;;;4990753;28;20196;-92
2023/12/09 04:08:43;;;;;;;2.53;1.60;;;15.20;97.10;;;;;;4974492;28;20366;-92
2023/12/09 04:11:09;;;;;;;4.77;1.73;;;15.20;97.10;;;;;;4986895;28;20418;-92
2023/12/09 04:13:35;;;;;;;3.10;1.60;;;15.20;97.10;;;;;;4973381;28;20627;-93
2023/12/09 04:16:01;;;;;;;2.00;1.40;;;15.20;97.10;;;;;;4984408;28;20174;-92
2023/12/09 04:18:27;;;;;;;2.97;1.70;;;15.20;97.10;;;;;;4975478;28;20347;-91
2023/12/09 04:20:53;;;;;;;2.90;1.47;;;15.20;97.10;;;;;;4980790;28;20170;-92
2023/12/09 04:23:18;;;;;;;2.33;1.50;;;15.20;97.10;;;;;;4978264;28;20211;-91
2023/12/09 04:25:44;;;;;;;2.33;1.50;;;15.20;97.10;;;;;;4978638;28;20649;-93
2023/12/09 04:28:14;;;;;;;2.50;1.60;;;15.20;97.10;;;;;;4980459;28;20178;-92
2023/12/09 04:30:39;;;;;;;2.67;1.50;;;15.20;97.00;;;;;;4976699;28;20173;-92
2023/12/09 04:33:05;;;;;;;3.00;1.60;;;15.20;97.10;;;;;;4982448;28;20191;-92
2023/12/09 04:35:30;;;;;;;1.80;1.37;;;15.10;97.00;;;;;;4975533;28;20187;-91
2023/12/09 04:37:56;;;;;;;1.80;1.40;;;15.20;97.00;;;;;;4985012;28;20216;-92
2023/12/09 04:40:22;;;;;;;2.17;1.40;;;15.20;96.90;;;;;;4974982;28;20175;-92
2023/12/09 04:42:47;;;;;;;2.73;1.70;;;15.10;96.90;;;;;;4986571;28;20200;-92
2023/12/09 04:45:13;;;;;;;2.17;1.57;;;15.20;96.90;;;;;;4976008;28;20177;-92
2023/12/09 04:47:39;;;;;;;2.97;1.63;;;15.20;96.90;;;;;;5010214;28;20290;-92
2023/12/09 04:50:08;;;;;;;2.70;1.47;;;15.10;96.90;;;;;;4996409;28;20235;-91
2023/12/09 04:52:35;;;;;;;3.50;1.70;;;15.20;96.80;;;;;;4981878;28;20277;-92
2023/12/09 04:55:02;;;;;;;3.27;1.67;;;15.10;96.80;;;;;;4992102;28;20283;-92
2023/12/09 04:57:30;;;;;;;3.17;1.57;;;15.10;96.80;;;;;;4987365;28;20181;-92
2023/12/09 04:59:56;;;;;;;2.43;1.40;;;15.10;96.70;;;;;;4973845;28;20178;-92
2023/12/09 05:02:22;;;;;;;2.23;1.40;;;15.10;96.70;;;;;;4981744;28;20223;-92
2023/12/09 05:04:48;;;;;;;2.17;1.30;;;15.20;96.80;;;;;;4975285;28;20176;-92
2023/12/09 05:07:14;;;;;;;1.93;1.40;;;15.10;96.70;;;;;;4978723;28;20171;-91
2023/12/09 05:09:43;;;;;;;2.43;1.43;;;15.10;96.60;;;;;;4979360;28;20182;-91
2023/12/09 05:12:09;;;;;;;2.40;1.50;;;15.10;96.60;;;;;;4978084;28;20570;-91
2023/12/09 05:14:35;;;;;;;2.10;1.43;;;15.10;96.60;;;;;;4982076;28;20212;-93
2023/12/09 05:17:01;;;;;;;2.43;1.37;;;15.10;96.60;;;;;;4975073;28;20180;-92
2023/12/09 05:19:27;;;;;;;1.93;1.30;;;15.10;96.50;;;;;;4984527;28;20179;-92
2023/12/09 05:21:52;;;;;;;1.40;1.20;;;15.10;96.50;;;;;;4975376;28;20265;-91
2023/12/09 05:24:18;;;;;;;2.17;1.43;;;15.10;96.50;;;;;;4985914;28;20262;-92
2023/12/09 05:26:44;;;;;;;1.73;1.13;;;15.10;96.50;;;;;;4975523;28;20216;-92
2023/12/09 05:29:10;;;;;;;2.03;1.50;;;15.10;96.50;;;;;;4985208;28;20168;-92
2023/12/09 05:31:35;;;;;;;2.47;1.30;;;15.10;96.40;;;;;;4975601;28;20170;-92
2023/12/09 05:34:01;;;;;;;4.43;1.47;;;15.10;96.40;;;;;;4992928;28;20206;-92
2023/12/09 05:36:27;;;;;;;1.70;1.20;;;15.00;96.40;;;;;;4973265;28;20347;-92
2023/12/09 05:38:53;;;;;;;1.80;1.20;;;15.10;96.50;;;;;;4985025;28;20205;-92
2023/12/09 05:41:18;;;;;;;2.20;1.50;;;15.10;96.40;;;;;;4973861;28;20470;-92
2023/12/09 05:43:44;;;;;;;2.13;1.40;;;15.00;96.40;;;;;;4981986;28;20208;-93
2023/12/09 05:46:18;;;;;;;3.57;1.40;;;15.00;96.40;;;;;;4977330;28;20197;-92
2023/12/09 05:48:45;;;;;;;1.10;1.00;;;15.00;96.30;;;;;;4979508;28;20183;-92
2023/12/09 05:51:11;;;;;;;2.50;1.47;;;15.00;96.30;;;;;;4976571;28;20181;-92
2023/12/09 05:53:36;;;;;;;2.30;1.33;;;15.00;96.30;;;;;;4975636;28;20191;-92
2023/12/09 05:56:03;;;;;;;1.87;1.27;;;15.00;96.20;;;;;;4982619;28;20248;-92
2023/12/09 05:58:30;;;;;;;4.03;1.50;;;15.00;96.40;;;;;;4984028;28;20291;-92
2023/12/09 06:00:56;;;;;;;2.43;1.50;;;15.00;96.20;;;;;;4991032;28;20216;-91
2023/12/09 06:03:22;;;;;;;2.77;1.50;;;15.00;96.20;;;;;;4990200;28;20541;-92
2023/12/09 06:05:49;;;;;;;1.43;1.20;;;15.00;96.20;;;;;;4986853;28;20233;-93
2023/12/09 06:08:14;;;;;;;2.77;1.20;;;15.00;96.20;;;;;;5005832;28;20175;-91
2023/12/09 06:10:40;;;;;;;1.50;1.27;;;15.00;96.10;;;;;;4998308;28;20180;-92
2023/12/09 06:13:06;;;;;;;1.60;1.20;;;15.00;96.00;;;;;;5009490;28;20250;-92
2023/12/09 06:15:34;;;;;;;1.73;1.20;;;15.00;96.10;;;;;;4993347;28;20173;-93
2023/12/09 06:18:00;;;;;;;1.87;1.10;;;15.00;96.10;;;;;;4998951;28;20478;-92
2023/12/09 06:20:26;;;;;;;1.83;1.10;;;15.00;96.00;;;;;;4979048;28;20440;-92
2023/12/09 06:22:52;;;;;;;4.50;1.30;;;15.00;96.00;;;;;;4992794;28;20307;-92
2023/12/09 06:25:23;;;;;;;3.10;1.50;;;15.00;96.00;;;;;;4980487;28;20247;-92
2023/12/09 06:27:49;;;;;;;1.70;1.20;;;14.90;96.00;;;;;;4991434;28;20185;-92
2023/12/09 06:30:14;;;;;;;1.30;1.17;;;14.90;95.90;;;;;;4982539;28;20199;-91
2023/12/09 06:32:41;;;;;;;2.30;1.53;;;15.00;96.00;;;;;;4988440;28;20199;-92
2023/12/09 06:35:08;;;;;;;1.90;1.40;;;15.00;96.00;;;;;;4984815;28;20181;-92
2023/12/09 06:37:33;;;;;;;2.73;1.40;;;15.00;96.00;;;;;;4985433;28;20175;-92
2023/12/09 06:39:59;;;;;;;2.83;1.30;;;15.00;95.90;;;;;;4986440;28;20184;-92
2023/12/09 06:42:25;;;;;;;1.57;1.20;;;15.00;95.80;;;;;;4982092;28;20581;-93
2023/12/09 06:44:50;;;;;;;1.57;1.23;;;15.00;95.70;;;;;;4989647;28;20435;-92
2023/12/09 06:47:16;;;;;;;1.93;1.20;;;15.00;95.70;;;;;;4979113;28;20170;-92
2023/12/09 06:49:42;;;;;;;2.00;1.20;;;15.00;95.50;;;;;;4987737;28;20189;-92
2023/12/09 06:52:08;;;;;;;2.07;1.20;;;15.00;95.50;;;;;;4979387;28;20203;-92
2023/12/09 06:54:33;;;;;;;1.50;1.10;;;15.10;95.50;;;;;;4989139;28;20767;-92
2023/12/09 06:56:59;;;;;;;2.73;1.30;;;15.00;95.40;;;;;;4976935;28;20180;-92
2023/12/09 06:59:26;;;;;;;1.77;1.13;;;15.00;95.30;;;;;;4992245;28;20251;-92
2023/12/09 07:01:55;;;;;;;1.20;1.00;;;15.00;95.30;;;;;;4977573;28;20276;-92
2023/12/09 07:04:21;;;;;;;2.20;1.10;;;15.10;95.30;;;;;;4991711;28;20180;-91
2023/12/09 07:06:46;;;;;;;2.70;1.33;;;15.00;95.20;;;;;;4980412;28;20209;-93
2023/12/09 07:09:13;;;;;;;2.17;1.13;;;15.00;95.20;;;;;;4989846;28;20182;-93
2023/12/09 07:11:39;;;;;;;2.20;1.37;;;15.00;95.20;;;;;;4990596;28;20172;-91
2023/12/09 07:14:05;;;;;;;1.27;1.17;;;15.00;95.20;;;;;;4974814;28;20184;-92
2023/12/09 07:16:31;;;;;;;1.40;1.17;;;15.00;95.20;;;;;;4975772;28;20528;-93
2023/12/09 07:19:00;;;;;;;2.07;1.30;;;14.90;95.20;;;;;;4985785;28;20267;-92
2023/12/09 07:21:29;;;;;;;1.90;1.10;;;14.90;95.20;;;;;;4987073;28;20192;-91
2023/12/09 07:23:55;;;;;;;1.93;1.03;;;14.90;95.30;;;;;;4977032;28;20216;-91
2023/12/09 07:26:21;;;;;;;2.10;1.33;;;14.90;95.30;;;;;;4971727;28;20176;-92
2023/12/09 07:28:47;;;;;;;2.60;1.10;;;14.80;95.30;;;;;;4980108;28;20192;-91
2023/12/09 07:31:17;;;;;;;2.03;1.40;;;14.80;95.30;;;;;;4987813;28;20431;-92
2023/12/09 07:33:43;;;;;;;3.50;1.20;;;14.80;95.40;;;;;;4997680;28;20188;-92
2023/12/09 07:36:09;;;;;;;2.40;1.20;;;14.70;95.40;;;;;;4998549;28;20185;-92
2023/12/09 07:38:37;;;;;;;1.30;1.20;;;14.70;95.40;;;;;;4999104;28;20175;-92
2023/12/09 07:41:03;;;;;;;1.83;1.30;;;14.70;95.40;;;;;;4999089;28;20212;-92
2023/12/09 07:43:30;;;;;;;1.80;1.20;;;14.70;95.50;;;;;;4980248;28;20210;-92
2023/12/09 07:45:55;;;;;;;1.80;1.23;;;14.70;95.50;;;;;;4979378;28;20279;-92
2023/12/09 07:48:21;;;;;;;1.33;1.00;;;14.70;95.60;;;;;;4994689;28;20274;-92
2023/12/09 07:51:06;;;;;;;2.13;1.10;;;14.70;95.60;;;;;;4998989;28;20209;-92
2023/12/09 07:53:32;;;;;;;1.30;1.10;;;14.80;95.50;;;;;;4988030;28;20563;-92
2023/12/09 07:55:58;;;;;;;2.33;1.10;;;15.00;95.00;;;;;;4998167;28;20290;-91
2023/12/09 07:58:24;;;;;;;1.30;0.97;;;15.60;93.70;;;;;;4996657;28;20211;-92
2023/12/09 08:00:50;;;;;;;1.67;1.20;;;16.10;92.10;;;;;;4972430;28;20219;-92
2023/12/09 08:03:16;;;;;;;1.53;1.17;;;16.40;90.90;;;;;;4979535;28;20228;-92
2023/12/09 08:05:41;;;;;;;3.97;1.50;;;16.40;90.40;;;;;;4960114;28;20184;-92
2023/12/09 08:08:07;;;;;;;2.43;1.23;;;16.40;90.10;;;;;;4975833;28;20205;-92
2023/12/09 08:10:33;;;;;;;2.43;1.17;;;16.40;90.00;;;;;;4977493;28;20283;-92
2023/12/09 08:12:58;;;;;;;1.07;1.00;;;16.40;90.00;;;;;;4971215;28;20183;-92
2023/12/09 08:15:24;;;;;;;1.23;1.10;;;16.70;88.10;;;;;;4978891;28;20241;-91
2023/12/09 08:17:49;;;;;;;2.33;1.00;;;16.90;86.60;;;;;;4970814;28;20198;-92
2023/12/09 08:20:16;;;;;;;1.57;1.10;;;17.10;84.80;;;;;;4979241;28;20175;-91
2023/12/09 08:22:42;;;;;;;1.93;1.00;;;17.20;83.60;;;;;;4965905;28;20223;-92
2023/12/09 08:25:09;;;;;;;1.57;1.00;;;17.10;83.50;;;;;;4977365;28;20231;-92
2023/12/09 08:27:35;;;;;;;2.63;1.30;;;17.00;83.90;;;;;;4967375;28;20190;-92
2023/12/09 08:30:03;;;;;;;2.20;1.07;;;16.80;84.60;;;;;;4985165;28;20177;-92
2023/12/09 08:32:29;;;;;;;1.63;1.10;;;16.50;85.60;;;;;;4991062;28;20197;-91
2023/12/09 08:34:54;;;;;;;1.23;1.00;;;16.30;87.50;;;;;;4983436;28;20216;-92
2023/12/09 08:37:25;;;;;;;1.73;1.10;;;16.10;88.30;;;;;;4969571;28;20264;-90
2023/12/09 08:39:54;;;;;;;2.00;1.10;;;15.80;90.00;;;;;;4979609;28;20185;-92
2023/12/09 08:42:20;;;;;;;4.77;1.40;;;15.60;90.80;;;;;;4969869;28;20301;-92
2023/12/09 08:44:46;;;;;;;2.83;1.20;;;15.50;91.30;;;;;;4975242;28;20195;-92
2023/12/09 08:47:11;;;;;;;2.10;1.10;;;15.40;91.70;;;;;;4971299;28;20182;-92
2023/12/09 08:49:37;;;;;;;1.83;1.33;;;15.30;91.90;;;;;;4974744;28;20512;-93
2023/12/09 08:52:03;;;;;;;2.27;1.20;;;15.30;92.20;;;;;;4974939;28;20530;-92
2023/12/09 08:59:33;;;;;;;5.40;1.57;;;15.10;93.80;;;;;;4986929;28;20804;-8
2023/12/09 09:01:59;;;;;;;2.63;1.30;;;15.10;94.00;;;;;;4989558;28;20166;-9
2023/12/09 09:04:25;;;;;;;4.20;1.50;;;15.10;94.40;;;;;;4990497;28;20438;-9
2023/12/09 09:06:51;;;;;;;2.73;1.20;;;15.00;94.30;;;;;;4974935;28;20219;-9
2023/12/09 09:09:17;;;;;;;7.03;1.37;;;15.00;94.40;;;;;;4974208;28;20232;-9
2023/12/09 09:11:42;;;;;;;3.90;1.50;;;15.00;94.50;;;;;;4972441;28;20202;-9
2023/12/09 09:14:08;;;;;;;2.77;1.50;;;15.00;94.70;;;;;;4991764;28;20257;-9
2023/12/09 09:16:34;;;;;;;2.67;1.60;;;15.00;94.60;;;;;;4994737;28;20205;-9
2023/12/09 09:18:59;;;;;;;4.83;1.50;;;15.00;94.70;;;;;;4971657;28;20595;-9
2023/12/09 09:21:25;;;;;;;3.30;1.57;;;15.00;94.80;;;;;;4989291;28;20343;-9
2023/12/09 09:23:51;;;;;;;3.70;1.50;;;15.00;94.70;;;;;;4989205;28;20866;-9
2023/12/09 09:26:16;;;;;;;3.47;1.43;;;15.10;94.60;;;;;;4973374;28;20181;-9
2023/12/09 09:28:43;;;;;;;2.80;1.30;;;15.20;94.30;;;;;;4997562;28;20174;-9
2023/12/09 09:31:14;;;;;;;2.17;1.27;;;15.40;93.70;;;;;;4997774;28;20634;-9
2023/12/09 09:33:41;;;;;;;5.27;1.80;;;15.70;93.00;;;;;;4971230;28;20178;-9
2023/12/09 09:36:08;;;;;;;6.07;1.90;;;16.00;92.10;;;;;;4970103;28;20215;-8
2023/12/09 09:38:34;;;;;;;3.40;1.30;;;16.20;91.20;;;;;;4970241;28;20213;-9
2023/12/09 09:41:17;;;;;;;3.97;1.70;;;16.50;90.30;;;;;;4988225;28;20204;-9
2023/12/09 09:43:46;;;;;;;3.53;1.60;;;16.60;89.60;;;;;;4988251;28;20622;-9
2023/12/09 09:46:14;;;;;;;4.23;1.50;;;16.40;89.80;;;;;;4989590;28;20277;-9
2023/12/09 09:48:43;;;;;;;2.87;1.40;;;16.40;89.40;;;;;;4989113;28;20563;-9
2023/12/09 09:51:15;;;;;;;4.07;1.70;;;16.40;89.30;;;;;;4972444;28;20552;-9
2023/12/09 09:54:22;;;;;;;4.57;1.63;;;16.40;89.00;;;;;;4988962;28;20170;-9
2023/12/09 09:56:51;;;;;;;3.17;1.73;;;16.40;89.10;;;;;;4969861;28;20297;-9
2023/12/09 09:59:17;;;;;;;3.10;1.47;;;16.30;89.40;;;;;;4987301;28;20250;-9
2023/12/09 10:01:44;;;;;;;5.30;1.30;;;16.40;89.30;;;;;;4986458;28;20170;-9
2023/12/09 10:04:11;;;;;;;3.80;1.40;;;16.30;89.00;;;;;;4989039;28;20198;-9
2023/12/09 10:06:36;;;;;;;4.73;1.53;;;16.20;89.00;;;;;;4971177;28;20185;-9
2023/12/09 10:09:03;;;;;;;2.27;1.40;;;16.10;89.30;;;;;;4970647;28;20186;-9
2023/12/09 10:11:29;;;;;;;4.67;1.47;;;15.90;90.00;;;;;;4987729;28;20174;-9
2023/12/09 10:13:55;;;;;;;3.57;1.60;;;15.80;90.30;;;;;;4987811;28;20316;-9
2023/12/09 10:16:21;;;;;;;3.33;1.50;;;15.70;90.60;;;;;;4970649;28;20505;-9
2023/12/09 10:18:47;;;;;;;2.60;1.50;;;15.70;90.90;;;;;;4972550;28;20198;-9
2023/12/09 10:21:15;;;;;;;4.33;1.50;;;15.60;91.00;;;;;;4976585;28;20174;-9
2023/12/09 10:23:45;;;;;;;2.47;1.50;;;15.60;91.20;;;;;;4993325;28;20311;-9
2023/12/09 10:26:11;;;;;;;2.90;1.40;;;15.50;91.30;;;;;;4996661;28;20261;-9
2023/12/09 10:28:37;;;;;;;5.90;1.80;;;15.50;91.40;;;;;;4979952;28;20591;-9
2023/12/09 10:31:03;;;;;;;4.17;1.67;;;15.50;91.60;;;;;;4995271;28;20191;-9
2023/12/09 10:33:30;;;;;;;3.70;1.73;;;15.50;91.60;;;;;;4994320;28;20583;-9
2023/12/09 10:35:57;;;;;;;3.97;1.70;;;15.40;91.70;;;;;;4987164;28;20210;-9
2023/12/09 10:38:22;;;;;;;4.77;1.87;;;15.40;91.80;;;;;;4987377;28;20177;-9
2023/12/09 10:40:51;;;;;;;4.87;1.97;;;15.40;91.90;;;;;;4969609;28;20323;-9
2023/12/09 10:43:17;;;;;;;3.80;1.60;;;15.40;91.90;;;;;;4971061;28;20206;-9
2023/12/09 10:45:43;;;;;;;5.23;1.80;;;15.30;91.80;;;;;;4974920;28;20567;-9
2023/12/09 10:48:08;;;;;;;3.90;1.70;;;15.30;92.00;;;;;;4987814;28;20174;-9
2023/12/09 10:50:37;;;;;;;4.10;1.60;;;15.30;92.10;;;;;;4983985;28;20184;-9
2023/12/09 10:53:04;;;;;;;4.90;1.70;;;15.30;92.10;;;;;;4989332;28;20236;-9
2023/12/09 10:55:30;;;;;;;5.43;1.73;;;15.30;92.10;;;;;;4960529;28;20182;-9
2023/12/09 10:57:57;;;;;;;3.27;1.53;;;15.30;92.20;;;;;;4972954;28;20193;-9
2023/12/09 11:00:24;;;;;;;6.77;1.80;;;15.30;92.20;;;;;;4984258;28;20197;-9
2023/12/09 11:02:52;;;;;;;3.77;1.60;;;15.40;92.20;;;;;;4968899;28;20538;-9
2023/12/09 11:05:19;;;;;;;4.20;1.80;;;15.40;92.20;;;;;;4968984;28;20559;-9
2023/12/09 11:07:47;;;;;;;7.03;2.00;;;15.30;92.30;;;;;;4989996;28;20265;-9
2023/12/09 11:10:14;;;;;;;3.50;1.60;;;15.30;92.30;;;;;;4989770;28;20170;-9
2023/12/09 11:12:42;;;;;;;5.40;2.40;;;15.30;92.30;;;;;;4989628;28;20232;-9
2023/12/09 11:15:15;;;;;;;7.73;2.03;;;15.30;92.30;;;;;;4971851;28;20566;-9
2023/12/09 11:17:43;;;;;;;3.57;1.87;;;15.30;92.30;;;;;;4989900;28;20638;-9
2023/12/09 11:20:13;;;;;;;4.07;1.60;;;15.30;92.20;;;;;;4989327;28;20553;-9
2023/12/09 11:22:40;;;;;;;4.40;1.93;;;15.40;92.20;;;;;;4974086;28;20389;-9
2023/12/09 11:25:20;;;;;;;5.97;2.00;;;15.40;92.10;;;;;;4992462;28;20568;-9
2023/12/09 11:27:49;;;;;;;4.33;1.80;;;15.50;92.10;;;;;;4981473;28;20177;-9
2023/12/09 11:30:34;;;;;;;4.77;1.87;;;15.50;92.10;;;;;;4997066;28;20326;-9
2023/12/09 11:33:00;;;;;;;4.20;1.70;;;15.50;92.00;;;;;;4976359;28;20280;-9
2023/12/09 11:35:26;;;;;;;5.03;1.83;;;15.50;91.90;;;;;;4997908;28;20188;-9
2023/12/09 11:37:57;;;;;;;6.20;2.27;;;15.50;91.80;;;;;;4998577;28;20177;-9
2023/12/09 11:40:23;;;;;;;4.40;1.80;;;15.60;91.70;;;;;;4997777;28;20177;-9
2023/12/09 11:42:52;;;;;;;3.27;1.77;;;15.60;91.60;;;;;;4980104;28;20201;-9
2023/12/09 11:45:19;;;;;;;3.80;1.70;;;15.70;91.50;;;;;;4987018;28;20277;-9
2023/12/09 11:47:46;;;;;;;4.77;2.17;;;15.70;91.30;;;;;;4977423;28;20164;-9
2023/12/09 11:50:17;;;;;;;4.47;1.93;;;15.80;91.20;;;;;;4979672;28;20168;-9
2023/12/09 11:52:44;;;;;;;6.03;1.77;;;15.80;91.10;;;;;;4980090;28;20517;-9
2023/12/09 11:55:10;;;;;;;3.57;1.60;;;15.80;91.00;;;;;;4978639;28;20212;-9
2023/12/09 11:57:38;;;;;;;4.83;2.00;;;15.80;90.90;;;;;;4962686;28;20236;-9
2023/12/09 12:00:11;;;;;;;4.43;2.10;;;15.80;90.90;;;;;;4962062;28;20209;-9
2023/12/09 12:02:42;;;;;;;5.40;1.83;;;15.80;90.90;;;;;;4962810;28;20794;-9
2023/12/09 12:05:11;;;;;;;6.93;1.90;;;15.80;91.10;;;;;;4979806;28;20173;-9
2023/12/09 12:07:38;;;;;;;5.47;1.70;;;15.70;91.10;;;;;;4980232;28;20220;-9
2023/12/09 12:10:07;;;;;;;3.93;1.57;;;15.70;91.20;;;;;;4998628;28;20186;-9
2023/12/09 12:12:33;;;;;;;5.37;1.83;;;15.70;91.30;;;;;;4980981;28;20180;-9
2023/12/09 12:15:01;;;;;;;7.23;1.70;;;15.70;91.40;;;;;;4995402;28;20460;-9
2023/12/09 12:17:28;;;;;;;6.07;1.80;;;15.60;91.60;;;;;;4997658;28;20170;-8
2023/12/09 12:19:55;;;;;;;3.47;1.77;;;15.60;91.80;;;;;;4981394;28;20175;-9
2023/12/09 12:22:20;;;;;;;4.50;1.90;;;15.60;91.80;;;;;;4989376;28;20195;-9
2023/12/09 12:24:46;;;;;;;5.03;1.83;;;15.50;92.00;;;;;;4979674;28;20241;-9
2023/12/09 12:27:12;;;;;;;4.80;1.83;;;15.50;92.10;;;;;;4992520;28;20177;-8
2023/12/09 12:29:38;;;;;;;4.30;1.70;;;15.50;92.30;;;;;;4997643;28;20253;-9
2023/12/09 12:32:11;;;;;;;5.07;1.80;;;15.50;92.50;;;;;;4977004;28;20179;-9
2023/12/09 12:34:44;;;;;;;5.60;2.10;;;15.40;92.50;;;;;;4986921;28;20232;-8
2023/12/09 12:37:10;;;;;;;3.70;1.80;;;15.50;92.80;;;;;;4998129;28;20198;-9
2023/12/09 12:39:36;;;;;;;5.47;1.73;;;15.40;92.70;;;;;;4999105;28;20195;-9
2023/12/09 12:42:05;;;;;;;6.93;2.07;;;15.40;92.90;;;;;;4998771;28;20182;-8
2023/12/09 12:44:32;;;;;;;6.20;2.10;;;15.40;92.90;;;;;;4980766;28;20191;-8
2023/12/09 12:46:57;;;;;;;4.20;2.30;;;15.40;93.00;;;;;;4996523;28;20212;-9
2023/12/09 12:49:26;;;;;;;6.27;2.33;;;15.40;93.00;;;;;;4997117;28;20212;-8
2023/12/09 12:51:54;;;;;;;5.73;2.10;;;15.50;93.00;;;;;;4979814;28;20283;-9
2023/12/09 12:54:20;;;;;;;5.90;2.13;;;15.40;93.00;;;;;;4995319;28;20622;-8